createdAt,value
2019-04-22T00:01:50.334Z,95739.57
2019-04-22T00:04:29.814Z,95734.48
2019-04-22T00:07:09.824Z,95732.30
2019-04-22T00:09:47.414Z,95731.79
2019-04-22T00:12:17.402Z,95731.76
2019-04-22T00:14:35.171Z,95727.92
2019-04-22T00:17:16.909Z,95728.30
2019-04-22T00:19:36.004Z,95724.56
2019-04-22T00:22:08.035Z,95722.45
2019-04-22T00:24:30.762Z,95718.89
2019-04-22T00:27:04.108Z,95717.31
2019-04-22T00:32:00.283Z,95703.81
2019-04-22T00:34:22.501Z,95705.80
2019-04-22T00:36:54.746Z,95698.05
2019-04-22T00:39:31.603Z,95699.16
2019-04-22T00:41:57.155Z,95698.75
2019-04-22T00:44:29.892Z,95687.17
2019-04-22T00:46:59.587Z,95688.20
2019-04-22T00:52:01.084Z,95684.91
2019-04-22T00:54:21.481Z,95690.17
2019-04-22T00:56:48.203Z,95684.03
2019-04-22T00:59:17.558Z,95681.42
2019-04-22T01:01:44.028Z,95679.23
2019-04-22T01:04:23.112Z,95680.30
2019-04-22T01:06:45.898Z,95677.75
2019-04-22T01:09:36.948Z,95674.61
2019-04-22T01:11:37.772Z,95682.16
2019-04-22T01:14:20.562Z,95675.11
2019-04-22T01:16:42.967Z,95675.95
2019-04-22T01:19:07.255Z,95677.86
2019-04-22T01:21:40.441Z,95673.62
2019-04-22T01:24:05.938Z,95670.09
2019-04-22T01:26:28.930Z,95666.23
2019-04-22T01:28:53.587Z,95665.89
2019-04-22T01:31:16.196Z,95663.37
2019-04-22T01:33:45.771Z,95669.80
2019-04-22T01:36:25.944Z,95667.48
2019-04-22T01:38:58.245Z,95669.95
2019-04-22T01:41:42.038Z,95669.17
2019-04-22T01:44:10.566Z,95667.55
2019-04-22T01:46:31.508Z,95664.91
2019-04-22T01:48:59.484Z,95665.63
2019-04-22T01:51:40.593Z,95663.88
2019-04-22T01:53:57.586Z,95655.15
2019-04-22T01:56:27.333Z,95656.48
2019-04-22T01:58:44.320Z,95653.77
2019-04-22T02:01:30.785Z,95645.19
2019-04-22T02:03:57.942Z,95641.08
2019-04-22T02:06:21.918Z,95646.27
2019-04-22T02:08:55.257Z,95642.94
2019-04-22T02:11:29.268Z,95637.65
2019-04-22T02:13:49.338Z,95638.28
2019-04-22T02:16:21.268Z,95635.23
2019-04-22T02:18:49.157Z,95634.83
2019-04-22T02:21:16.740Z,95634.59
2019-04-22T02:26:15.542Z,95621.64
2019-04-22T02:36:30.548Z,95613.17
2019-04-22T02:41:26.338Z,95614.88
2019-04-22T02:48:53.763Z,95605.88
2019-04-22T02:51:12.587Z,95601.69
2019-04-22T02:56:25.707Z,95597.31
2019-04-22T02:58:48.359Z,95601.38
2019-04-22T03:01:13.591Z,95598.42
2019-04-22T03:06:16.468Z,95585.72
2019-04-22T03:08:29.603Z,95582.13
2019-04-22T03:13:37.803Z,95581.83
2019-04-22T03:16:17.518Z,95574.50
2019-04-22T03:20:58.397Z,95575.94
2019-04-22T03:23:36.553Z,95570.39
2019-04-22T03:28:33.059Z,95566.80
2019-04-22T03:33:36.249Z,95557.87
2019-04-22T03:35:50.123Z,95555.48
2019-04-22T03:38:18.027Z,95549.83
2019-04-22T03:41:05.469Z,95555.09
2019-04-22T03:43:33.869Z,95550.70
2019-04-22T03:45:51.413Z,95543.59
2019-04-22T03:48:26.269Z,95547.21
2019-04-22T03:58:01.739Z,95550.06
2019-04-22T04:00:34.851Z,95548.27
2019-04-22T04:03:09.401Z,95545.34
2019-04-22T04:10:45.447Z,95529.39
2019-04-22T04:13:19.710Z,95533.46
2019-04-22T04:18:06.907Z,95522.41
2019-04-22T04:20:36.439Z,95524.36
2019-04-22T04:32:56.656Z,95521.45
2019-04-22T04:35:33.178Z,95520.47
2019-04-22T04:42:54.314Z,95515.38
2019-04-22T04:53:01.481Z,95506.61
2019-04-22T04:55:23.994Z,95508.67
2019-04-22T04:57:57.675Z,95508.98
2019-04-22T05:05:21.076Z,95504.70
2019-04-22T05:07:40.386Z,95503.55
2019-04-22T05:10:31.482Z,95502.60
2019-04-22T05:15:11.255Z,95491.16
2019-04-22T05:20:05.297Z,95501.73
2019-04-22T05:22:34.084Z,95491.92
2019-04-22T05:25:00.032Z,95492.51
2019-04-22T05:30:21.483Z,95486.78
2019-04-22T05:32:27.143Z,95487.66
2019-04-22T05:34:55.736Z,95491.30
2019-04-22T05:39:52.532Z,95488.72
2019-04-22T05:42:17.862Z,95489.22
2019-04-22T05:44:49.667Z,95486.63
2019-04-22T05:47:20.837Z,95479.38
2019-04-22T05:49:45.894Z,95483.53
2019-04-22T05:52:17.413Z,95479.15
2019-04-22T05:54:47.059Z,95477.50
2019-04-22T05:59:50.326Z,95474.82
2019-04-22T06:04:46.310Z,95469.17
2019-04-22T06:07:06.460Z,95471.83
2019-04-22T06:09:32.276Z,95471.16
2019-04-22T06:11:59.183Z,95475.64
2019-04-22T06:14:31.426Z,95463.43
2019-04-22T06:17:03.905Z,95459.56
2019-04-22T06:19:51.206Z,95458.55
2019-04-22T06:22:04.260Z,95456.60
2019-04-22T06:24:38.880Z,95457.86
2019-04-22T06:27:12.505Z,95452.91
2019-04-22T06:29:41.254Z,95456.09
2019-04-22T06:34:28.782Z,95451.46
2019-04-22T06:37:07.315Z,95450.14
2019-04-22T06:39:34.291Z,95445.16
2019-04-22T06:42:01.078Z,95447.84
2019-04-22T06:49:33.448Z,95453.43
2019-04-22T06:51:55.703Z,95454.97
2019-04-22T06:56:57.244Z,95456.38
2019-04-22T07:01:50.307Z,95449.38
2019-04-22T07:04:17.240Z,95449.84
2019-04-22T07:09:35.043Z,95445.56
2019-04-22T07:11:43.300Z,95446.85
2019-04-22T07:14:09.045Z,95439.67
2019-04-22T07:16:43.241Z,95436.69
2019-04-22T07:19:13.858Z,95436.24
2019-04-22T07:22:01.276Z,95434.02
2019-04-22T07:24:27.838Z,95426.98
2019-04-22T07:26:37.593Z,95433.95
2019-04-22T07:29:10.355Z,95430.30
2019-04-22T07:31:34.160Z,95436.23
2019-04-22T07:34:16.399Z,95427.50
2019-04-22T07:39:05.562Z,95425.53
2019-04-22T07:41:34.479Z,95421.36
2019-04-22T07:44:13.086Z,95419.70
2019-04-22T07:46:36.224Z,95416.80
2019-04-22T07:49:02.035Z,95407.52
2019-04-22T07:51:32.703Z,95419.16
2019-04-22T07:53:59.694Z,95409.83
2019-04-22T07:56:26.136Z,95404.63
2019-04-22T07:58:58.237Z,95398.27
2019-04-22T08:01:26.366Z,95400.25
2019-04-22T08:06:26.194Z,95390.05
2019-04-22T08:08:58.418Z,95393.08
2019-04-22T08:11:37.537Z,95389.57
2019-04-22T08:13:49.891Z,95386.98
2019-04-22T08:16:16.357Z,95384.81
2019-04-22T08:18:47.518Z,95391.63
2019-04-22T08:21:16.741Z,95379.00
2019-04-22T08:23:51.031Z,95376.98
2019-04-22T08:26:16.814Z,95373.63
2019-04-22T08:28:46.498Z,95371.38
2019-04-22T08:31:14.885Z,95369.00
2019-04-22T08:33:41.398Z,95366.09
2019-04-22T08:36:18.395Z,95360.28
2019-04-22T08:38:48.709Z,95362.20
2019-04-22T08:41:17.284Z,95363.04
2019-04-22T08:43:51.429Z,95360.03
2019-04-22T08:46:06.112Z,95358.68
2019-04-22T08:48:37.094Z,95361.56
2019-04-22T08:51:08.816Z,95352.64
2019-04-22T08:53:41.579Z,95352.83
2019-04-22T08:56:14.478Z,95352.84
2019-04-22T08:58:35.868Z,95350.98
2019-04-22T09:01:06.507Z,95341.63
2019-04-22T09:03:30.387Z,95345.11
2019-04-22T09:06:20.150Z,95347.25
2019-04-22T09:08:34.203Z,95341.05
2019-04-22T09:10:59.945Z,95358.87
2019-04-22T09:13:31.960Z,95337.92
2019-04-22T09:15:55.467Z,95354.97
2019-04-22T09:18:23.215Z,95338.85
2019-04-22T09:21:02.627Z,95325.72
2019-04-22T09:23:27.095Z,95327.08
2019-04-22T09:25:48.483Z,95329.48
2019-04-22T09:28:24.633Z,95326.60
2019-04-22T09:30:56.653Z,95319.92
2019-04-22T09:33:20.928Z,95320.27
2019-04-22T09:35:56.862Z,95308.86
2019-04-22T09:38:26.812Z,95299.34
2019-04-22T09:43:16.950Z,95308.45
2019-04-22T09:45:43.910Z,95302.35
2019-04-22T09:50:42.104Z,95285.57
2019-04-22T09:53:08.480Z,95291.54
2019-04-22T09:55:37.671Z,95290.70
2019-04-22T09:58:03.115Z,95282.73
2019-04-22T10:00:40.565Z,95293.13
2019-04-22T10:03:06.888Z,95281.59
2019-04-22T10:05:33.879Z,95270.31
2019-04-22T10:08:14.857Z,95271.46
2019-04-22T10:10:35.227Z,95274.74
2019-04-22T10:13:03.495Z,95265.66
2019-04-22T10:15:36.257Z,95262.47
2019-04-22T10:18:02.794Z,95260.61
2019-04-22T10:20:31.427Z,95270.48
2019-04-22T10:22:57.968Z,95248.63
2019-04-22T10:25:31.314Z,95248.37
2019-04-22T10:28:06.520Z,95254.77
2019-04-22T10:30:38.729Z,95240.58
2019-04-22T10:32:54.901Z,95241.88
2019-04-22T10:35:06.826Z,95244.02
2019-04-22T10:37:32.220Z,95238.20
2019-04-22T10:40:04.000Z,95236.33
2019-04-22T10:42:29.272Z,95240.05
2019-04-22T10:44:57.275Z,95236.38
2019-04-22T10:47:25.749Z,95232.88
2019-04-22T10:49:54.147Z,95235.59
2019-04-22T10:52:23.335Z,95228.67
2019-04-22T10:54:51.688Z,95220.36
2019-04-22T10:57:20.106Z,95209.41
2019-04-22T10:59:47.639Z,95207.35
2019-04-22T11:02:14.970Z,95206.44
2019-04-22T11:04:42.341Z,95195.24
2019-04-22T11:07:13.082Z,95187.77
2019-04-22T11:09:49.413Z,95197.72
2019-04-22T11:12:13.882Z,95196.89
2019-04-22T11:14:40.161Z,95195.16
2019-04-22T11:17:07.420Z,95176.14
2019-04-22T11:19:35.389Z,95174.56
2019-04-22T11:22:10.957Z,95185.55
2019-04-22T11:24:32.725Z,95176.66
2019-04-22T11:27:01.124Z,95174.88
2019-04-22T11:29:29.790Z,95173.63
2019-04-22T11:31:56.950Z,95180.22
2019-04-22T11:34:24.922Z,95160.02
2019-04-22T11:36:52.702Z,95158.71
2019-04-22T11:39:19.849Z,95147.27
2019-04-22T11:41:47.188Z,95140.55
2019-04-22T11:44:15.095Z,95152.87
2019-04-22T11:46:43.245Z,95142.25
2019-04-22T11:49:11.949Z,95133.98
2019-04-22T11:51:40.206Z,95130.00
2019-04-22T11:54:07.314Z,95126.32
2019-04-22T11:56:34.914Z,95134.86
2019-04-22T11:59:02.654Z,95112.32
2019-04-22T12:01:30.921Z,95121.41
2019-04-22T12:03:58.212Z,95119.45
2019-04-22T12:06:26.284Z,95123.58
2019-04-22T12:08:54.141Z,95114.71
2019-04-22T12:11:22.761Z,95122.60
2019-04-22T12:13:51.760Z,95117.78
2019-04-22T12:16:19.345Z,95105.87
2019-04-22T12:18:47.233Z,95104.22
2019-04-22T12:21:15.277Z,95098.83
2019-04-22T12:23:43.407Z,95099.08
2019-04-22T12:26:16.171Z,95098.83
2019-04-22T12:28:39.637Z,95082.30
2019-04-22T12:31:06.986Z,95091.01
2019-04-22T12:33:35.096Z,95080.07
2019-04-22T12:36:02.625Z,95084.37
2019-04-22T12:38:29.671Z,95077.48
2019-04-22T12:41:01.282Z,95083.07
2019-04-22T12:43:26.543Z,95077.27
2019-04-22T12:45:56.105Z,95057.67
2019-04-22T12:48:25.259Z,95067.81
2019-04-22T12:50:56.002Z,95066.38
2019-04-22T12:53:25.337Z,95058.53
2019-04-22T12:55:50.413Z,95056.58
2019-04-22T12:58:18.137Z,95052.56
2019-04-22T13:00:45.615Z,95043.27
2019-04-22T13:03:13.865Z,95041.09
2019-04-22T13:05:41.068Z,95037.87
2019-04-22T13:08:09.579Z,95034.08
2019-04-22T13:10:45.671Z,95038.30
2019-04-22T13:13:07.002Z,95019.92
2019-04-22T13:15:35.101Z,95024.58
2019-04-22T13:18:12.874Z,95011.73
2019-04-22T13:20:32.374Z,95015.55
2019-04-22T13:22:59.981Z,95024.34
2019-04-22T13:25:30.026Z,95006.54
2019-04-22T13:27:57.494Z,95004.38
2019-04-22T13:30:26.188Z,95004.68
2019-04-22T13:32:54.551Z,94990.30
2019-04-22T13:35:22.222Z,95002.28
2019-04-22T13:37:51.032Z,94972.22
2019-04-22T13:40:19.210Z,94983.10
2019-04-22T13:42:46.851Z,94982.79
2019-04-22T13:45:15.822Z,94977.20
2019-04-22T13:48:06.881Z,94982.53
2019-04-22T13:50:49.451Z,94979.33
2019-04-22T13:53:23.872Z,94968.68
2019-04-22T13:55:40.886Z,94964.66
2019-04-22T13:57:53.902Z,94967.08
2019-04-22T14:00:09.544Z,94962.34
2019-04-22T14:02:36.904Z,94969.07
2019-04-22T14:05:06.409Z,94950.48
2019-04-22T14:07:34.776Z,94960.87
2019-04-22T14:10:02.657Z,94949.47
2019-04-22T14:12:30.797Z,94943.59
2019-04-22T14:14:58.450Z,94935.38
2019-04-22T14:17:27.094Z,94933.48
2019-04-22T14:19:55.031Z,94932.92
2019-04-22T14:22:22.411Z,94928.56
2019-04-22T14:24:49.767Z,94920.00
2019-04-22T14:27:27.901Z,94919.45
2019-04-22T14:29:47.185Z,94905.52
2019-04-22T14:32:21.045Z,94917.23
2019-04-22T14:34:44.957Z,94913.75
2019-04-22T14:37:14.248Z,94903.82
2019-04-22T14:39:41.991Z,94901.53
2019-04-22T14:42:28.445Z,94916.67
2019-04-22T14:45:18.062Z,94895.66
2019-04-22T14:47:34.887Z,94894.09
2019-04-22T14:50:00.491Z,94883.50
2019-04-22T14:52:27.753Z,94883.26
2019-04-22T14:54:48.379Z,94882.49
2019-04-22T14:57:03.342Z,94881.41
2019-04-22T14:59:30.956Z,94882.21
2019-04-22T15:02:01.353Z,94873.13
2019-04-22T15:04:29.079Z,94872.30
2019-04-22T15:06:58.969Z,94864.00
2019-04-22T15:09:27.895Z,94869.31
2019-04-22T15:12:08.379Z,94875.44
2019-04-22T15:14:25.608Z,94874.45
2019-04-22T15:16:53.069Z,94876.08
2019-04-22T15:19:22.129Z,94879.04
2019-04-22T15:21:50.327Z,94867.12
2019-04-22T15:24:18.444Z,94860.48
2019-04-22T15:26:46.537Z,94862.88
2019-04-22T15:29:13.640Z,94854.13
2019-04-22T15:31:41.648Z,94869.58
2019-04-22T15:34:10.236Z,94858.95
2019-04-22T15:36:37.850Z,94855.25
2019-04-22T15:39:05.261Z,94857.14
2019-04-22T15:41:34.706Z,94861.97
2019-04-22T15:44:03.608Z,94855.31
2019-04-22T15:46:31.940Z,94843.05
2019-04-22T15:49:00.010Z,94839.31
2019-04-22T15:51:28.839Z,94831.05
2019-04-22T15:53:57.912Z,94837.17
2019-04-22T15:56:26.388Z,94841.69
2019-04-22T15:58:53.689Z,94819.87
2019-04-22T16:01:27.546Z,94845.40
2019-04-22T16:03:50.332Z,94832.10
2019-04-22T16:06:17.823Z,94835.84
2019-04-22T16:08:45.829Z,94829.20
2019-04-22T16:11:13.986Z,94823.94
2019-04-22T16:13:42.283Z,94819.70
2019-04-22T16:16:10.358Z,94823.13
2019-04-22T16:18:38.097Z,94817.55
2019-04-22T16:21:05.196Z,94821.28
2019-04-22T16:23:33.999Z,94816.49
2019-04-22T16:26:01.150Z,94817.84
2019-04-22T16:28:29.336Z,94809.34
2019-04-22T16:30:57.700Z,94805.63
2019-04-22T16:33:25.646Z,94803.23
2019-04-22T16:35:53.237Z,94809.63
2019-04-22T16:38:20.472Z,94795.53
2019-04-22T16:40:48.581Z,94800.32
2019-04-22T16:43:16.602Z,94792.11
2019-04-22T16:45:45.418Z,94789.46
2019-04-22T16:48:13.672Z,94788.94
2019-04-22T16:50:42.844Z,94795.31
2019-04-22T16:53:10.220Z,94785.75
2019-04-22T16:55:37.309Z,94783.36
2019-04-22T16:58:05.270Z,94788.94
2019-04-22T17:00:32.742Z,94783.09
2019-04-22T17:03:00.725Z,94782.03
2019-04-22T17:05:29.482Z,94780.17
2019-04-22T17:07:58.224Z,94778.58
2019-04-22T17:10:26.116Z,94782.79
2019-04-22T17:13:01.428Z,94782.52
2019-04-22T17:15:24.079Z,94775.66
2019-04-22T17:17:51.596Z,94785.19
2019-04-22T17:20:18.858Z,94778.03
2019-04-22T17:22:47.216Z,94773.51
2019-04-22T17:25:16.185Z,94772.71
2019-04-22T17:27:43.570Z,94768.19
2019-04-22T17:30:10.744Z,94763.42
2019-04-22T17:32:37.841Z,94770.58
2019-04-22T17:35:06.360Z,94773.73
2019-04-22T17:37:35.940Z,94773.19
2019-04-22T17:40:21.892Z,94782.44
2019-04-22T17:42:49.471Z,94777.91
2019-04-22T17:45:31.340Z,94779.75
2019-04-22T17:47:46.567Z,94778.91
2019-04-22T17:50:16.752Z,94771.18
2019-04-22T17:53:00.389Z,94773.00
2019-04-22T17:55:19.514Z,94769.81
2019-04-22T17:57:40.906Z,94778.77
2019-04-22T18:00:14.580Z,94776.56
2019-04-22T18:02:43.303Z,94775.70
2019-04-22T18:05:01.461Z,94779.06
2019-04-22T18:07:44.063Z,94776.33
2019-04-22T18:10:28.811Z,94778.39
2019-04-22T18:12:44.222Z,94777.52
2019-04-22T18:15:10.266Z,94778.48
2019-04-22T18:17:41.086Z,94778.94
2019-04-22T18:20:04.683Z,94778.59
2019-04-22T18:22:29.479Z,94778.77
2019-04-22T18:24:56.805Z,94775.47
2019-04-22T18:27:48.849Z,94772.77
2019-04-22T18:30:01.968Z,94779.05
2019-04-22T18:32:22.857Z,94785.61
2019-04-22T18:34:53.108Z,94779.16
2019-04-22T18:37:24.882Z,94783.91
2019-04-22T18:39:58.031Z,94783.76
2019-04-22T18:42:24.161Z,94782.71
2019-04-22T18:45:06.599Z,94779.42
2019-04-22T18:47:21.636Z,94782.16
2019-04-22T18:49:53.100Z,94788.45
2019-04-22T18:52:19.366Z,94781.05
2019-04-22T18:54:55.257Z,94780.22
2019-04-22T18:57:20.130Z,94786.16
2019-04-22T18:59:34.623Z,94781.41
2019-04-22T19:02:05.352Z,94781.72
2019-04-22T19:04:38.090Z,94781.09
2019-04-22T19:07:23.966Z,94776.23
2019-04-22T19:10:00.009Z,94775.42
2019-04-22T19:12:37.903Z,94770.56
2019-04-22T19:14:54.980Z,94773.86
2019-04-22T19:17:30.840Z,94771.91
2019-04-22T19:19:44.402Z,94766.55
2019-04-22T19:22:07.462Z,94767.80
2019-04-22T19:24:34.367Z,94766.68
2019-04-22T19:27:11.022Z,94768.16
2019-04-22T19:29:39.225Z,94766.28
2019-04-22T19:32:08.372Z,94764.80
2019-04-22T19:34:34.985Z,94769.00
2019-04-22T19:37:03.512Z,94761.12
2019-04-22T19:39:28.752Z,94758.44
2019-04-22T19:42:09.550Z,94754.85
2019-04-22T19:44:36.426Z,94761.92
2019-04-22T19:47:18.620Z,94753.93
2019-04-22T19:49:44.088Z,94756.29
2019-04-22T19:52:05.424Z,94754.41
2019-04-22T19:54:26.100Z,94765.84
2019-04-22T19:56:45.614Z,94763.92
2019-04-22T19:59:14.951Z,94767.02
2019-04-22T20:01:49.443Z,94762.50
2019-04-22T20:04:28.223Z,94764.98
2019-04-22T20:06:52.257Z,94754.06
2019-04-22T20:09:24.917Z,94751.78
2019-04-22T20:11:49.508Z,94754.98
2019-04-22T20:14:35.819Z,94757.53
2019-04-22T20:16:43.825Z,94758.44
2019-04-22T20:19:25.362Z,94757.35
2019-04-22T20:21:49.439Z,94758.48
2019-04-22T20:24:05.417Z,94747.00
2019-04-22T20:26:50.051Z,94745.63
2019-04-22T20:29:11.775Z,94738.20
2019-04-22T20:31:45.167Z,94735.65
2019-04-22T20:34:14.715Z,94729.88
2019-04-22T20:39:02.120Z,94732.80
2019-04-22T20:41:33.954Z,94738.16
2019-04-22T20:44:12.496Z,94725.78
2019-04-22T20:46:31.461Z,94731.84
2019-04-22T20:49:05.072Z,94724.89
2019-04-22T20:51:44.445Z,94724.84
2019-04-22T20:54:02.162Z,94725.77
2019-04-22T20:56:31.276Z,94723.05
2019-04-22T20:59:01.949Z,94719.70
2019-04-22T21:01:28.372Z,94716.19
2019-04-22T21:03:45.754Z,94714.48
2019-04-22T21:06:26.051Z,94715.37
2019-04-22T21:09:02.202Z,94709.20
2019-04-22T21:11:28.439Z,94705.14
2019-04-22T21:13:52.947Z,94704.47
2019-04-22T21:16:26.981Z,94703.67
2019-04-22T21:18:47.369Z,94710.42
2019-04-22T21:21:26.489Z,94701.63
2019-04-22T21:23:47.717Z,94708.30
2019-04-22T21:26:19.517Z,94708.36
2019-04-22T21:28:47.656Z,94710.22
2019-04-22T21:31:24.859Z,94706.96
2019-04-22T21:33:48.950Z,94709.42
2019-04-22T21:36:20.622Z,94705.25
2019-04-22T21:38:44.033Z,94704.62
2019-04-22T21:41:10.180Z,94706.39
2019-04-22T21:43:42.136Z,94699.13
2019-04-22T21:46:13.424Z,94700.04
2019-04-22T21:48:42.690Z,94697.35
2019-04-22T21:51:10.911Z,94696.14
2019-04-22T21:53:48.821Z,94692.34
2019-04-22T21:56:23.998Z,94692.57
2019-04-22T21:58:38.675Z,94685.70
2019-04-22T22:01:14.988Z,94685.05
2019-04-22T22:03:40.177Z,94677.59
2019-04-22T22:05:58.799Z,94670.55
2019-04-22T22:08:42.733Z,94667.70
2019-04-22T22:11:02.627Z,94663.81
2019-04-22T22:13:34.859Z,94662.78
2019-04-22T22:15:56.471Z,94654.61
2019-04-22T22:18:23.798Z,94646.31
2019-04-22T22:21:20.881Z,94649.05
2019-04-22T22:23:32.548Z,94660.47
2019-04-22T22:25:53.809Z,94648.92
2019-04-22T22:28:41.790Z,94644.06
2019-04-22T22:31:03.380Z,94648.87
2019-04-22T22:33:26.924Z,94644.28
2019-04-22T22:35:52.048Z,94646.50
2019-04-22T22:38:24.393Z,94655.60
2019-04-22T22:40:35.813Z,94641.16
2019-04-22T22:43:12.903Z,94632.41
2019-04-22T22:45:37.075Z,94634.91
2019-04-22T22:51:29.910Z,94623.31
2019-04-22T22:53:57.033Z,94619.48
2019-04-22T22:56:35.611Z,94626.49
2019-04-22T22:58:54.863Z,94619.54
2019-04-22T23:01:21.308Z,94619.98
2019-04-22T23:04:02.494Z,94616.24
2019-04-22T23:06:22.176Z,94619.16
2019-04-22T23:08:54.063Z,94615.31
2019-04-22T23:11:12.079Z,94618.41
2019-04-22T23:13:42.647Z,94616.84
2019-04-22T23:16:04.172Z,94616.52
2019-04-22T23:18:21.704Z,94606.82
2019-04-22T23:20:51.819Z,94600.70
2019-04-22T23:23:39.469Z,94599.91
2019-04-22T23:26:06.111Z,94604.13
2019-04-22T23:28:29.761Z,94594.23
2019-04-22T23:30:51.208Z,94602.13
2019-04-22T23:33:27.720Z,94597.52
2019-04-22T23:35:52.871Z,94597.61
2019-04-22T23:38:24.182Z,94596.23
2019-04-22T23:40:54.091Z,94593.76
2019-04-22T23:43:32.641Z,94588.66
2019-04-22T23:45:56.414Z,94586.04
2019-04-22T23:48:25.237Z,94585.69
2019-04-22T23:50:57.417Z,94577.75
2019-04-22T23:53:45.138Z,94569.74
2019-04-22T23:55:57.132Z,94572.00
2019-04-22T23:58:44.840Z,94566.47
